sensor_id;sensor_type;location;lat;lon;timestamp;P1;durP1;ratioP1;P2;durP2;ratioP2
38787;SDS011;24536;45.488;12.238;2022-07-06T00:01:32;1.33;;;1.02;;
38787;SDS011;24536;45.488;12.238;2022-07-06T00:03:58;2.25;;;0.88;;
38787;SDS011;24536;45.488;12.238;2022-07-06T00:06:23;2.75;;;0.80;;
38787;SDS011;24536;45.488;12.238;2022-07-06T00:08:50;1.10;;;0.60;;
38787;SDS011;24536;45.488;12.238;2022-07-06T00:11:16;1.42;;;0.88;;
38787;SDS011;24536;45.488;12.238;2022-07-06T00:13:42;2.65;;;1.10;;
38787;SDS011;24536;45.488;12.238;2022-07-06T00:16:08;2.28;;;0.80;;
38787;SDS011;24536;45.488;12.238;2022-07-06T00:18:33;1.70;;;0.80;;
38787;SDS011;24536;45.488;12.238;2022-07-06T00:20:59;1.77;;;1.00;;
38787;SDS011;24536;45.488;12.238;2022-07-06T00:23:25;1.35;;;0.90;;
38787;SDS011;24536;45.488;12.238;2022-07-06T00:25:51;2.88;;;0.95;;
38787;SDS011;24536;45.488;12.238;2022-07-06T00:28:17;1.95;;;1.10;;
38787;SDS011;24536;45.488;12.238;2022-07-06T00:30:42;1.48;;;0.90;;
38787;SDS011;24536;45.488;12.238;2022-07-06T00:33:08;2.42;;;1.00;;
38787;SDS011;24536;45.488;12.238;2022-07-06T00:35:34;0.90;;;0.52;;
38787;SDS011;24536;45.488;12.238;2022-07-06T00:38:00;1.10;;;0.70;;
38787;SDS011;24536;45.488;12.238;2022-07-06T00:40:26;1.13;;;0.60;;
38787;SDS011;24536;45.488;12.238;2022-07-06T00:42:52;1.30;;;0.50;;
38787;SDS011;24536;45.488;12.238;2022-07-06T00:45:18;1.15;;;0.60;;
38787;SDS011;24536;45.488;12.238;2022-07-06T00:47:44;2.05;;;0.70;;
38787;SDS011;24536;45.488;12.238;2022-07-06T00:50:11;6.53;;;1.08;;
38787;SDS011;24536;45.488;12.238;2022-07-06T00:52:39;0.77;;;0.60;;
38787;SDS011;24536;45.488;12.238;2022-07-06T00:55:09;2.17;;;0.85;;
38787;SDS011;24536;45.488;12.238;2022-07-06T00:57:35;5.00;;;1.27;;
38787;SDS011;24536;45.488;12.238;2022-07-06T01:00:05;2.30;;;1.40;;
38787;SDS011;24536;45.488;12.238;2022-07-06T01:02:34;4.70;;;1.58;;
38787;SDS011;24536;45.488;12.238;2022-07-06T01:05:00;1.95;;;1.73;;
38787;SDS011;24536;45.488;12.238;2022-07-06T01:07:28;1.48;;;1.00;;
38787;SDS011;24536;45.488;12.238;2022-07-06T01:09:54;6.90;;;2.20;;
38787;SDS011;24536;45.488;12.238;2022-07-06T01:12:20;6.43;;;2.13;;
38787;SDS011;24536;45.488;12.238;2022-07-06T01:14:46;4.70;;;1.88;;
38787;SDS011;24536;45.488;12.238;2022-07-06T01:17:13;1.95;;;1.30;;
38787;SDS011;24536;45.488;12.238;2022-07-06T01:19:40;2.92;;;1.10;;
38787;SDS011;24536;45.488;12.238;2022-07-06T01:22:05;2.88;;;0.80;;
38787;SDS011;24536;45.488;12.238;2022-07-06T01:24:31;3.80;;;1.67;;
38787;SDS011;24536;45.488;12.238;2022-07-06T01:27:00;1.33;;;1.00;;
38787;SDS011;24536;45.488;12.238;2022-07-06T01:29:25;1.55;;;0.93;;
38787;SDS011;24536;45.488;12.238;2022-07-06T01:31:51;2.85;;;0.90;;
38787;SDS011;24536;45.488;12.238;2022-07-06T01:34:17;1.58;;;0.70;;
38787;SDS011;24536;45.488;12.238;2022-07-06T01:36:43;1.35;;;0.90;;
38787;SDS011;24536;45.488;12.238;2022-07-06T01:39:09;1.13;;;0.88;;
38787;SDS011;24536;45.488;12.238;2022-07-06T01:41:35;1.35;;;0.90;;
38787;SDS011;24536;45.488;12.238;2022-07-06T01:44:01;1.70;;;0.63;;
38787;SDS011;24536;45.488;12.238;2022-07-06T01:46:27;0.65;;;0.60;;
38787;SDS011;24536;45.488;12.238;2022-07-06T01:48:53;1.13;;;0.75;;
38787;SDS011;24536;45.488;12.238;2022-07-06T01:51:19;0.57;;;0.57;;
38787;SDS011;24536;45.488;12.238;2022-07-06T01:53:45;1.10;;;0.60;;
38787;SDS011;24536;45.488;12.238;2022-07-06T01:56:11;1.80;;;0.82;;
38787;SDS011;24536;45.488;12.238;2022-07-06T01:58:37;1.10;;;0.75;;
38787;SDS011;24536;45.488;12.238;2022-07-06T02:01:10;1.38;;;0.60;;
38787;SDS011;24536;45.488;12.238;2022-07-06T02:03:41;2.38;;;0.70;;
38787;SDS011;24536;45.488;12.238;2022-07-06T02:06:08;1.60;;;1.05;;
38787;SDS011;24536;45.488;12.238;2022-07-06T02:08:34;1.13;;;0.70;;
38787;SDS011;24536;45.488;12.238;2022-07-06T02:11:01;1.38;;;1.27;;
38787;SDS011;24536;45.488;12.238;2022-07-06T02:13:27;1.30;;;1.20;;
38787;SDS011;24536;45.488;12.238;2022-07-06T02:15:53;2.90;;;1.40;;
38787;SDS011;24536;45.488;12.238;2022-07-06T02:18:19;3.13;;;1.67;;
38787;SDS011;24536;45.488;12.238;2022-07-06T02:20:45;2.28;;;1.30;;
38787;SDS011;24536;45.488;12.238;2022-07-06T02:23:11;1.85;;;1.02;;
38787;SDS011;24536;45.488;12.238;2022-07-06T02:25:36;3.13;;;1.35;;
38787;SDS011;24536;45.488;12.238;2022-07-06T02:28:02;2.28;;;1.35;;
38787;SDS011;24536;45.488;12.238;2022-07-06T02:30:28;1.73;;;1.58;;
38787;SDS011;24536;45.488;12.238;2022-07-06T02:32:54;2.53;;;1.50;;
38787;SDS011;24536;45.488;12.238;2022-07-06T02:35:20;2.88;;;1.50;;
38787;SDS011;24536;45.488;12.238;2022-07-06T02:37:46;3.00;;;1.00;;
38787;SDS011;24536;45.488;12.238;2022-07-06T02:40:11;1.92;;;0.93;;
38787;SDS011;24536;45.488;12.238;2022-07-06T02:42:37;2.65;;;1.08;;
38787;SDS011;24536;45.488;12.238;2022-07-06T02:45:04;2.97;;;1.60;;
38787;SDS011;24536;45.488;12.238;2022-07-06T02:47:30;1.42;;;0.85;;
38787;SDS011;24536;45.488;12.238;2022-07-06T02:49:55;2.83;;;1.35;;
38787;SDS011;24536;45.488;12.238;2022-07-06T02:52:21;5.93;;;2.00;;
38787;SDS011;24536;45.488;12.238;2022-07-06T02:57:34;2.00;;;1.77;;
38787;SDS011;24536;45.488;12.238;2022-07-06T03:00:00;2.00;;;1.50;;
38787;SDS011;24536;45.488;12.238;2022-07-06T03:02:26;6.35;;;1.45;;
38787;SDS011;24536;45.488;12.238;2022-07-06T03:04:52;1.92;;;1.50;;
38787;SDS011;24536;45.488;12.238;2022-07-06T03:07:17;7.75;;;1.70;;
38787;SDS011;24536;45.488;12.238;2022-07-06T03:09:43;6.35;;;1.88;;
38787;SDS011;24536;45.488;12.238;2022-07-06T03:12:09;3.35;;;1.27;;
38787;SDS011;24536;45.488;12.238;2022-07-06T03:14:35;1.95;;;1.10;;
38787;SDS011;24536;45.488;12.238;2022-07-06T03:17:00;3.70;;;1.30;;
38787;SDS011;24536;45.488;12.238;2022-07-06T03:19:26;1.98;;;1.52;;
38787;SDS011;24536;45.488;12.238;2022-07-06T03:21:51;2.95;;;1.60;;
38787;SDS011;24536;45.488;12.238;2022-07-06T03:24:17;1.30;;;1.15;;
38787;SDS011;24536;45.488;12.238;2022-07-06T03:26:43;1.88;;;1.23;;
38787;SDS011;24536;45.488;12.238;2022-07-06T03:29:08;1.77;;;1.30;;
38787;SDS011;24536;45.488;12.238;2022-07-06T03:31:34;2.85;;;1.65;;
38787;SDS011;24536;45.488;12.238;2022-07-06T03:34:00;4.07;;;2.20;;
38787;SDS011;24536;45.488;12.238;2022-07-06T03:36:26;4.38;;;1.60;;
38787;SDS011;24536;45.488;12.238;2022-07-06T03:38:51;4.93;;;1.40;;
38787;SDS011;24536;45.488;12.238;2022-07-06T03:41:17;5.40;;;2.08;;
38787;SDS011;24536;45.488;12.238;2022-07-06T03:43:43;2.15;;;1.08;;
38787;SDS011;24536;45.488;12.238;2022-07-06T03:46:08;2.45;;;1.77;;
38787;SDS011;24536;45.488;12.238;2022-07-06T03:48:34;6.03;;;1.90;;
38787;SDS011;24536;45.488;12.238;2022-07-06T03:51:00;3.50;;;1.58;;
38787;SDS011;24536;45.488;12.238;2022-07-06T03:53:26;2.05;;;1.45;;
38787;SDS011;24536;45.488;12.238;2022-07-06T03:55:51;2.85;;;1.40;;
38787;SDS011;24536;45.488;12.238;2022-07-06T03:58:36;3.75;;;1.80;;
38787;SDS011;24536;45.488;12.238;2022-07-06T04:01:02;5.28;;;1.60;;
38787;SDS011;24536;45.488;12.238;2022-07-06T04:03:27;2.30;;;1.83;;
38787;SDS011;24536;45.488;12.238;2022-07-06T04:05:53;2.08;;;1.27;;
38787;SDS011;24536;45.488;12.238;2022-07-06T04:08:19;4.22;;;1.67;;
38787;SDS011;24536;45.488;12.238;2022-07-06T04:10:45;3.45;;;1.60;;
38787;SDS011;24536;45.488;12.238;2022-07-06T04:13:11;2.05;;;1.13;;
38787;SDS011;24536;45.488;12.238;2022-07-06T04:15:37;2.05;;;1.02;;
38787;SDS011;24536;45.488;12.238;2022-07-06T04:18:03;1.73;;;1.02;;
38787;SDS011;24536;45.488;12.238;2022-07-06T04:20:28;1.50;;;1.17;;
38787;SDS011;24536;45.488;12.238;2022-07-06T04:22:54;2.45;;;1.08;;
38787;SDS011;24536;45.488;12.238;2022-07-06T04:25:20;1.30;;;1.20;;
38787;SDS011;24536;45.488;12.238;2022-07-06T04:27:45;1.27;;;1.00;;
38787;SDS011;24536;45.488;12.238;2022-07-06T04:30:11;5.25;;;1.83;;
38787;SDS011;24536;45.488;12.238;2022-07-06T04:32:37;1.83;;;1.13;;
38787;SDS011;24536;45.488;12.238;2022-07-06T04:35:03;1.98;;;1.20;;
38787;SDS011;24536;45.488;12.238;2022-07-06T04:37:30;3.50;;;1.42;;
38787;SDS011;24536;45.488;12.238;2022-07-06T04:39:56;4.53;;;1.52;;
38787;SDS011;24536;45.488;12.238;2022-07-06T04:42:21;2.88;;;1.00;;
38787;SDS011;24536;45.488;12.238;2022-07-06T04:44:47;4.70;;;1.70;;
38787;SDS011;24536;45.488;12.238;2022-07-06T04:47:13;3.95;;;1.20;;
38787;SDS011;24536;45.488;12.238;2022-07-06T04:49:39;2.63;;;1.70;;
38787;SDS011;24536;45.488;12.238;2022-07-06T04:52:05;2.53;;;1.15;;
38787;SDS011;24536;45.488;12.238;2022-07-06T04:54:31;2.90;;;1.65;;
38787;SDS011;24536;45.488;12.238;2022-07-06T04:56:56;2.88;;;1.10;;
38787;SDS011;24536;45.488;12.238;2022-07-06T04:59:22;1.83;;;1.10;;
38787;SDS011;24536;45.488;12.238;2022-07-06T05:01:48;5.53;;;1.30;;
38787;SDS011;24536;45.488;12.238;2022-07-06T05:04:13;2.40;;;1.60;;
38787;SDS011;24536;45.488;12.238;2022-07-06T05:06:39;3.35;;;1.42;;
38787;SDS011;24536;45.488;12.238;2022-07-06T05:09:05;1.88;;;1.38;;
38787;SDS011;24536;45.488;12.238;2022-07-06T05:11:31;2.97;;;0.98;;
38787;SDS011;24536;45.488;12.238;2022-07-06T05:13:58;1.85;;;1.00;;
38787;SDS011;24536;45.488;12.238;2022-07-06T05:16:24;2.92;;;1.20;;
38787;SDS011;24536;45.488;12.238;2022-07-06T05:18:49;1.48;;;0.85;;
38787;SDS011;24536;45.488;12.238;2022-07-06T05:21:15;1.67;;;1.33;;
38787;SDS011;24536;45.488;12.238;2022-07-06T05:23:41;1.88;;;0.93;;
38787;SDS011;24536;45.488;12.238;2022-07-06T05:26:06;2.63;;;0.93;;
38787;SDS011;24536;45.488;12.238;2022-07-06T05:28:32;1.13;;;0.90;;
38787;SDS011;24536;45.488;12.238;2022-07-06T05:30:58;3.63;;;1.30;;
38787;SDS011;24536;45.488;12.238;2022-07-06T05:33:25;1.63;;;1.40;;
38787;SDS011;24536;45.488;12.238;2022-07-06T05:35:52;3.53;;;1.33;;
38787;SDS011;24536;45.488;12.238;2022-07-06T05:38:18;2.25;;;1.23;;
38787;SDS011;24536;45.488;12.238;2022-07-06T05:43:29;2.50;;;1.23;;
38787;SDS011;24536;45.488;12.238;2022-07-06T05:45:54;4.10;;;1.00;;
38787;SDS011;24536;45.488;12.238;2022-07-06T05:48:20;1.20;;;0.90;;
38787;SDS011;24536;45.488;12.238;2022-07-06T05:51:06;2.55;;;0.93;;
38787;SDS011;24536;45.488;12.238;2022-07-06T05:53:32;1.02;;;0.75;;
38787;SDS011;24536;45.488;12.238;2022-07-06T05:55:57;1.52;;;1.00;;
38787;SDS011;24536;45.488;12.238;2022-07-06T05:58:23;3.03;;;1.35;;
38787;SDS011;24536;45.488;12.238;2022-07-06T06:00:50;1.42;;;1.00;;
38787;SDS011;24536;45.488;12.238;2022-07-06T06:03:16;4.38;;;1.10;;
38787;SDS011;24536;45.488;12.238;2022-07-06T06:05:41;3.25;;;0.93;;
38787;SDS011;24536;45.488;12.238;2022-07-06T06:08:07;1.73;;;0.88;;
38787;SDS011;24536;45.488;12.238;2022-07-06T06:10:33;2.58;;;1.63;;
38787;SDS011;24536;45.488;12.238;2022-07-06T06:12:59;1.40;;;1.30;;
38787;SDS011;24536;45.488;12.238;2022-07-06T06:15:24;2.70;;;1.20;;
38787;SDS011;24536;45.488;12.238;2022-07-06T06:17:50;1.80;;;1.00;;
38787;SDS011;24536;45.488;12.238;2022-07-06T06:20:16;1.48;;;1.08;;
38787;SDS011;24536;45.488;12.238;2022-07-06T06:22:49;3.00;;;0.98;;
38787;SDS011;24536;45.488;12.238;2022-07-06T06:25:20;6.75;;;1.50;;
38787;SDS011;24536;45.488;12.238;2022-07-06T06:27:52;3.40;;;1.38;;
38787;SDS011;24536;45.488;12.238;2022-07-06T06:30:18;6.78;;;1.20;;
38787;SDS011;24536;45.488;12.238;2022-07-06T06:32:43;4.93;;;1.42;;
38787;SDS011;24536;45.488;12.238;2022-07-06T06:35:09;0.88;;;0.88;;
38787;SDS011;24536;45.488;12.238;2022-07-06T06:37:35;40.63;;;27.23;;
38787;SDS011;24536;45.488;12.238;2022-07-06T06:40:01;105.10;;;87.40;;
38787;SDS011;24536;45.488;12.238;2022-07-06T06:42:28;86.85;;;77.43;;
38787;SDS011;24536;45.488;12.238;2022-07-06T06:44:54;4.45;;;3.15;;
38787;SDS011;24536;45.488;12.238;2022-07-06T06:47:22;4.70;;;1.13;;
38787;SDS011;24536;45.488;12.238;2022-07-06T06:49:51;2.33;;;1.20;;
38787;SDS011;24536;45.488;12.238;2022-07-06T06:52:16;4.22;;;1.30;;
38787;SDS011;24536;45.488;12.238;2022-07-06T06:54:42;2.67;;;1.23;;
38787;SDS011;24536;45.488;12.238;2022-07-06T06:57:08;2.13;;;1.50;;
38787;SDS011;24536;45.488;12.238;2022-07-06T06:59:33;2.13;;;0.95;;
38787;SDS011;24536;45.488;12.238;2022-07-06T07:01:59;3.05;;;1.65;;
38787;SDS011;24536;45.488;12.238;2022-07-06T07:04:25;5.30;;;1.10;;
38787;SDS011;24536;45.488;12.238;2022-07-06T07:06:51;1.92;;;1.23;;
38787;SDS011;24536;45.488;12.238;2022-07-06T07:09:17;1.55;;;1.10;;
38787;SDS011;24536;45.488;12.238;2022-07-06T07:11:42;2.33;;;1.23;;
38787;SDS011;24536;45.488;12.238;2022-07-06T07:14:08;1.45;;;1.10;;
38787;SDS011;24536;45.488;12.238;2022-07-06T07:16:34;1.80;;;1.20;;
38787;SDS011;24536;45.488;12.238;2022-07-06T07:18:59;3.08;;;1.58;;
38787;SDS011;24536;45.488;12.238;2022-07-06T07:21:28;2.42;;;1.27;;
38787;SDS011;24536;45.488;12.238;2022-07-06T07:23:53;2.80;;;1.33;;
38787;SDS011;24536;45.488;12.238;2022-07-06T07:26:19;2.88;;;1.33;;
38787;SDS011;24536;45.488;12.238;2022-07-06T07:28:45;2.33;;;1.00;;
38787;SDS011;24536;45.488;12.238;2022-07-06T07:31:11;2.88;;;1.25;;
38787;SDS011;24536;45.488;12.238;2022-07-06T07:33:37;1.75;;;1.00;;
38787;SDS011;24536;45.488;12.238;2022-07-06T07:36:11;1.60;;;0.80;;
38787;SDS011;24536;45.488;12.238;2022-07-06T07:38:36;1.63;;;0.88;;
38787;SDS011;24536;45.488;12.238;2022-07-06T07:41:02;6.13;;;1.42;;
38787;SDS011;24536;45.488;12.238;2022-07-06T07:43:28;5.03;;;0.98;;
38787;SDS011;24536;45.488;12.238;2022-07-06T07:45:53;1.67;;;1.17;;
38787;SDS011;24536;45.488;12.238;2022-07-06T07:48:22;0.70;;;0.50;;
38787;SDS011;24536;45.488;12.238;2022-07-06T07:50:48;0.85;;;0.80;;
38787;SDS011;24536;45.488;12.238;2022-07-06T07:53:16;1.00;;;0.70;;
38787;SDS011;24536;45.488;12.238;2022-07-06T07:55:42;0.60;;;0.60;;
38787;SDS011;24536;45.488;12.238;2022-07-06T07:58:08;1.17;;;0.70;;
38787;SDS011;24536;45.488;12.238;2022-07-06T08:00:33;1.00;;;0.55;;
38787;SDS011;24536;45.488;12.238;2022-07-06T08:02:59;1.60;;;0.88;;
38787;SDS011;24536;45.488;12.238;2022-07-06T08:05:25;1.48;;;1.02;;
38787;SDS011;24536;45.488;12.238;2022-07-06T08:07:51;3.30;;;0.95;;
38787;SDS011;24536;45.488;12.238;2022-07-06T08:10:17;1.20;;;1.10;;
38787;SDS011;24536;45.488;12.238;2022-07-06T08:12:44;1.38;;;0.60;;
38787;SDS011;24536;45.488;12.238;2022-07-06T08:15:10;1.33;;;0.85;;
38787;SDS011;24536;45.488;12.238;2022-07-06T08:17:36;0.80;;;0.57;;
38787;SDS011;24536;45.488;12.238;2022-07-06T08:20:01;1.45;;;0.80;;
38787;SDS011;24536;45.488;12.238;2022-07-06T08:22:28;0.65;;;0.60;;
38787;SDS011;24536;45.488;12.238;2022-07-06T08:24:54;1.33;;;0.65;;
38787;SDS011;24536;45.488;12.238;2022-07-06T08:27:21;0.80;;;0.60;;
38787;SDS011;24536;45.488;12.238;2022-07-06T08:29:47;1.30;;;0.80;;
38787;SDS011;24536;45.488;12.238;2022-07-06T08:32:12;1.55;;;0.80;;
38787;SDS011;24536;45.488;12.238;2022-07-06T08:34:38;2.00;;;0.80;;
38787;SDS011;24536;45.488;12.238;2022-07-06T08:37:03;0.88;;;0.68;;
38787;SDS011;24536;45.488;12.238;2022-07-06T08:39:29;0.70;;;0.60;;
38787;SDS011;24536;45.488;12.238;2022-07-06T08:41:56;3.95;;;0.90;;
38787;SDS011;24536;45.488;12.238;2022-07-06T08:44:23;1.90;;;0.77;;
38787;SDS011;24536;45.488;12.238;2022-07-06T08:46:52;1.67;;;0.50;;
38787;SDS011;24536;45.488;12.238;2022-07-06T08:49:22;1.25;;;1.10;;
38787;SDS011;24536;45.488;12.238;2022-07-06T08:51:48;1.08;;;0.60;;
38787;SDS011;24536;45.488;12.238;2022-07-06T08:54:16;0.90;;;0.70;;
38787;SDS011;24536;45.488;12.238;2022-07-06T08:56:43;1.00;;;0.73;;
38787;SDS011;24536;45.488;12.238;2022-07-06T08:59:08;0.80;;;0.57;;
38787;SDS011;24536;45.488;12.238;2022-07-06T09:01:36;2.40;;;0.60;;
38787;SDS011;24536;45.488;12.238;2022-07-06T09:04:05;1.02;;;0.70;;
38787;SDS011;24536;45.488;12.238;2022-07-06T09:06:34;1.08;;;0.50;;
38787;SDS011;24536;45.488;12.238;2022-07-06T09:09:00;0.68;;;0.43;;
38787;SDS011;24536;45.488;12.238;2022-07-06T09:11:31;0.50;;;0.50;;
38787;SDS011;24536;45.488;12.238;2022-07-06T09:13:57;0.98;;;0.70;;
38787;SDS011;24536;45.488;12.238;2022-07-06T09:16:26;0.60;;;0.55;;
38787;SDS011;24536;45.488;12.238;2022-07-06T09:18:53;0.98;;;0.70;;
38787;SDS011;24536;45.488;12.238;2022-07-06T09:21:26;0.47;;;0.40;;
38787;SDS011;24536;45.488;12.238;2022-07-06T09:23:57;2.40;;;0.65;;
38787;SDS011;24536;45.488;12.238;2022-07-06T09:26:24;4.63;;;0.68;;
38787;SDS011;24536;45.488;12.238;2022-07-06T09:28:50;1.58;;;0.50;;
38787;SDS011;24536;45.488;12.238;2022-07-06T09:31:17;1.27;;;0.60;;
38787;SDS011;24536;45.488;12.238;2022-07-06T09:33:55;0.77;;;0.60;;
38787;SDS011;24536;45.488;12.238;2022-07-06T09:36:45;1.00;;;0.55;;
38787;SDS011;24536;45.488;12.238;2022-07-06T09:39:16;4.28;;;0.50;;
38787;SDS011;24536;45.488;12.238;2022-07-06T09:41:47;0.90;;;0.80;;
38787;SDS011;24536;45.488;12.238;2022-07-06T09:44:25;1.02;;;0.45;;
38787;SDS011;24536;45.488;12.238;2022-07-06T09:46:53;1.33;;;0.40;;
38787;SDS011;24536;45.488;12.238;2022-07-06T09:49:21;0.45;;;0.40;;
38787;SDS011;24536;45.488;12.238;2022-07-06T09:51:48;0.75;;;0.38;;
38787;SDS011;24536;45.488;12.238;2022-07-06T09:54:15;0.98;;;0.60;;
38787;SDS011;24536;45.488;12.238;2022-07-06T09:56:43;0.70;;;0.60;;
38787;SDS011;24536;45.488;12.238;2022-07-06T09:59:15;0.60;;;0.60;;
38787;SDS011;24536;45.488;12.238;2022-07-06T10:01:44;1.25;;;0.52;;
38787;SDS011;24536;45.488;12.238;2022-07-06T10:04:11;0.47;;;0.43;;
38787;SDS011;24536;45.488;12.238;2022-07-06T10:06:38;2.50;;;0.82;;
38787;SDS011;24536;45.488;12.238;2022-07-06T10:09:05;0.50;;;0.40;;
38787;SDS011;24536;45.488;12.238;2022-07-06T10:11:34;1.02;;;0.50;;
38787;SDS011;24536;45.488;12.238;2022-07-06T10:14:03;1.23;;;0.82;;
38787;SDS011;24536;45.488;12.238;2022-07-06T10:16:31;0.50;;;0.47;;
38787;SDS011;24536;45.488;12.238;2022-07-06T10:18:58;0.75;;;0.52;;
38787;SDS011;24536;45.488;12.238;2022-07-06T10:21:26;1.13;;;0.73;;
38787;SDS011;24536;45.488;12.238;2022-07-06T10:23:52;4.55;;;0.73;;
38787;SDS011;24536;45.488;12.238;2022-07-06T10:26:19;2.25;;;1.00;;
38787;SDS011;24536;45.488;12.238;2022-07-06T10:28:48;2.38;;;0.95;;
38787;SDS011;24536;45.488;12.238;2022-07-06T10:31:15;0.90;;;0.50;;
38787;SDS011;24536;45.488;12.238;2022-07-06T10:33:42;0.93;;;0.55;;
38787;SDS011;24536;45.488;12.238;2022-07-06T10:36:09;0.73;;;0.70;;
38787;SDS011;24536;45.488;12.238;2022-07-06T10:38:36;0.75;;;0.50;;
38787;SDS011;24536;45.488;12.238;2022-07-06T10:41:02;1.40;;;0.80;;
38787;SDS011;24536;45.488;12.238;2022-07-06T10:43:36;0.30;;;0.30;;
38787;SDS011;24536;45.488;12.238;2022-07-06T10:46:07;1.38;;;0.85;;
38787;SDS011;24536;45.488;12.238;2022-07-06T10:48:34;1.00;;;0.80;;
38787;SDS011;24536;45.488;12.238;2022-07-06T10:51:01;1.83;;;0.80;;
38787;SDS011;24536;45.488;12.238;2022-07-06T10:53:39;1.20;;;0.82;;
38787;SDS011;24536;45.488;12.238;2022-07-06T10:56:06;1.90;;;1.05;;
38787;SDS011;24536;45.488;12.238;2022-07-06T10:58:37;2.42;;;1.38;;
38787;SDS011;24536;45.488;12.238;2022-07-06T11:01:16;1.40;;;0.95;;
38787;SDS011;24536;45.488;12.238;2022-07-06T11:03:43;2.97;;;1.20;;
38787;SDS011;24536;45.488;12.238;2022-07-06T11:06:19;1.08;;;0.90;;
38787;SDS011;24536;45.488;12.238;2022-07-06T11:11:21;1.40;;;0.80;;
38787;SDS011;24536;45.488;12.238;2022-07-06T11:14:04;4.43;;;1.08;;
38787;SDS011;24536;45.488;12.238;2022-07-06T11:16:33;1.52;;;0.77;;
38787;SDS011;24536;45.488;12.238;2022-07-06T11:19:11;0.90;;;0.68;;
38787;SDS011;24536;45.488;12.238;2022-07-06T11:21:40;3.92;;;0.70;;
38787;SDS011;24536;45.488;12.238;2022-07-06T11:24:12;1.52;;;0.80;;
38787;SDS011;24536;45.488;12.238;2022-07-06T11:26:39;0.98;;;0.60;;
38787;SDS011;24536;45.488;12.238;2022-07-06T11:29:08;1.23;;;0.75;;
38787;SDS011;24536;45.488;12.238;2022-07-06T11:31:46;16.58;;;14.85;;
38787;SDS011;24536;45.488;12.238;2022-07-06T11:34:22;24.88;;;22.42;;
38787;SDS011;24536;45.488;12.238;2022-07-06T11:37:00;4.35;;;3.08;;
38787;SDS011;24536;45.488;12.238;2022-07-06T11:39:28;1.05;;;0.70;;
38787;SDS011;24536;45.488;12.238;2022-07-06T11:41:55;1.02;;;0.60;;
38787;SDS011;24536;45.488;12.238;2022-07-06T11:44:22;2.88;;;0.98;;
38787;SDS011;24536;45.488;12.238;2022-07-06T11:46:48;1.10;;;0.85;;
38787;SDS011;24536;45.488;12.238;2022-07-06T11:49:14;0.50;;;0.40;;
38787;SDS011;24536;45.488;12.238;2022-07-06T11:51:41;2.45;;;0.50;;
38787;SDS011;24536;45.488;12.238;2022-07-06T11:56:33;1.00;;;0.60;;
38787;SDS011;24536;45.488;12.238;2022-07-06T11:59:00;1.35;;;0.40;;
38787;SDS011;24536;45.488;12.238;2022-07-06T12:01:26;0.57;;;0.43;;
38787;SDS011;24536;45.488;12.238;2022-07-06T12:03:53;1.75;;;0.60;;
38787;SDS011;24536;45.488;12.238;2022-07-06T12:06:29;0.30;;;0.30;;
38787;SDS011;24536;45.488;12.238;2022-07-06T12:08:58;0.85;;;0.60;;
38787;SDS011;24536;45.488;12.238;2022-07-06T12:11:26;2.00;;;0.47;;
38787;SDS011;24536;45.488;12.238;2022-07-06T12:13:54;0.38;;;0.35;;
38787;SDS011;24536;45.488;12.238;2022-07-06T12:16:22;2.53;;;0.60;;
38787;SDS011;24536;45.488;12.238;2022-07-06T12:18:59;0.25;;;0.25;;
38787;SDS011;24536;45.488;12.238;2022-07-06T12:21:25;0.95;;;0.55;;
38787;SDS011;24536;45.488;12.238;2022-07-06T12:23:52;0.80;;;0.40;;
38787;SDS011;24536;45.488;12.238;2022-07-06T12:26:20;3.05;;;0.60;;
38787;SDS011;24536;45.488;12.238;2022-07-06T12:29:09;0.50;;;0.50;;
38787;SDS011;24536;45.488;12.238;2022-07-06T12:31:40;0.60;;;0.38;;
38787;SDS011;24536;45.488;12.238;2022-07-06T12:34:13;0.90;;;0.52;;
38787;SDS011;24536;45.488;12.238;2022-07-06T12:36:52;1.35;;;0.55;;
38787;SDS011;24536;45.488;12.238;2022-07-06T12:39:27;1.75;;;0.75;;
38787;SDS011;24536;45.488;12.238;2022-07-06T12:44:22;2.83;;;0.80;;
38787;SDS011;24536;45.488;12.238;2022-07-06T12:47:02;1.25;;;0.70;;
38787;SDS011;24536;45.488;12.238;2022-07-06T12:49:29;1.63;;;0.60;;
38787;SDS011;24536;45.488;12.238;2022-07-06T12:52:00;0.90;;;0.55;;
38787;SDS011;24536;45.488;12.238;2022-07-06T12:54:31;1.30;;;0.60;;
38787;SDS011;24536;45.488;12.238;2022-07-06T12:57:12;3.38;;;0.60;;
38787;SDS011;24536;45.488;12.238;2022-07-06T13:02:25;0.60;;;0.50;;
38787;SDS011;24536;45.488;12.238;2022-07-06T13:07:30;1.08;;;0.52;;
38787;SDS011;24536;45.488;12.238;2022-07-06T13:09:57;1.05;;;0.45;;
38787;SDS011;24536;45.488;12.238;2022-07-06T13:12:27;1.25;;;0.60;;
38787;SDS011;24536;45.488;12.238;2022-07-06T13:14:52;3.25;;;0.63;;
38787;SDS011;24536;45.488;12.238;2022-07-06T13:17:18;2.30;;;0.50;;
38787;SDS011;24536;45.488;12.238;2022-07-06T13:19:44;2.28;;;0.70;;
38787;SDS011;24536;45.488;12.238;2022-07-06T13:22:09;0.50;;;0.40;;
38787;SDS011;24536;45.488;12.238;2022-07-06T13:24:35;0.70;;;0.70;;
38787;SDS011;24536;45.488;12.238;2022-07-06T13:27:02;2.40;;;0.40;;
38787;SDS011;24536;45.488;12.238;2022-07-06T13:29:28;2.78;;;0.75;;
38787;SDS011;24536;45.488;12.238;2022-07-06T13:31:53;0.75;;;0.50;;
38787;SDS011;24536;45.488;12.238;2022-07-06T13:34:19;1.88;;;0.60;;
38787;SDS011;24536;45.488;12.238;2022-07-06T13:36:45;2.58;;;0.63;;
38787;SDS011;24536;45.488;12.238;2022-07-06T13:39:10;1.15;;;0.50;;
38787;SDS011;24536;45.488;12.238;2022-07-06T13:41:36;0.50;;;0.50;;
38787;SDS011;24536;45.488;12.238;2022-07-06T13:44:02;1.17;;;0.50;;
38787;SDS011;24536;45.488;12.238;2022-07-06T13:46:29;1.95;;;0.77;;
38787;SDS011;24536;45.488;12.238;2022-07-06T13:48:57;0.70;;;0.40;;
38787;SDS011;24536;45.488;12.238;2022-07-06T13:51:24;0.90;;;0.60;;
38787;SDS011;24536;45.488;12.238;2022-07-06T13:53:51;1.13;;;0.60;;
38787;SDS011;24536;45.488;12.238;2022-07-06T13:56:18;1.75;;;0.70;;
38787;SDS011;24536;45.488;12.238;2022-07-06T13:58:44;2.10;;;0.73;;
38787;SDS011;24536;45.488;12.238;2022-07-06T14:01:11;1.38;;;0.60;;
38787;SDS011;24536;45.488;12.238;2022-07-06T14:03:37;1.52;;;0.70;;
38787;SDS011;24536;45.488;12.238;2022-07-06T14:06:03;0.90;;;0.55;;
38787;SDS011;24536;45.488;12.238;2022-07-06T14:08:32;0.93;;;0.60;;
38787;SDS011;24536;45.488;12.238;2022-07-06T14:10:57;2.40;;;0.70;;
38787;SDS011;24536;45.488;12.238;2022-07-06T14:13:24;0.50;;;0.40;;
38787;SDS011;24536;45.488;12.238;2022-07-06T14:15:50;0.60;;;0.50;;
38787;SDS011;24536;45.488;12.238;2022-07-06T14:18:16;1.08;;;0.60;;
38787;SDS011;24536;45.488;12.238;2022-07-06T14:20:45;1.63;;;0.60;;
38787;SDS011;24536;45.488;12.238;2022-07-06T14:23:12;1.73;;;0.57;;
38787;SDS011;24536;45.488;12.238;2022-07-06T14:25:39;1.13;;;0.45;;
38787;SDS011;24536;45.488;12.238;2022-07-06T14:28:05;1.63;;;0.65;;
38787;SDS011;24536;45.488;12.238;2022-07-06T14:30:32;0.82;;;0.40;;
38787;SDS011;24536;45.488;12.238;2022-07-06T14:32:59;4.55;;;0.90;;
38787;SDS011;24536;45.488;12.238;2022-07-06T14:35:26;0.52;;;0.40;;
38787;SDS011;24536;45.488;12.238;2022-07-06T14:37:52;2.67;;;0.80;;
38787;SDS011;24536;45.488;12.238;2022-07-06T14:40:18;0.55;;;0.50;;
38787;SDS011;24536;45.488;12.238;2022-07-06T14:42:43;0.63;;;0.50;;
38787;SDS011;24536;45.488;12.238;2022-07-06T14:45:09;3.20;;;0.70;;
38787;SDS011;24536;45.488;12.238;2022-07-06T14:47:35;0.52;;;0.40;;
38787;SDS011;24536;45.488;12.238;2022-07-06T14:50:01;0.57;;;0.47;;
38787;SDS011;24536;45.488;12.238;2022-07-06T14:52:28;1.27;;;0.30;;